Flight Track Log - Related Links

Times and Time Zones

All times are in EDT time to prevent confusion due to time zone crossing. See the AAL963 flight status page for this flight to view local times or setup timezone preferences in your user account.

Time Position Orientation Groundspeed Altitude Reporting Facility
EDT Latitude Longitude Course Direction KTS MPH feet Rate Location/Type
Wed 09:16:22 PM 32.8590 -97.0520 180° South 183 211 2,100  Level FlightAware ADS-B
Wed 09:16:47 PM 32.8360 -97.0520 180° South 203 234 2,400 982 Climbing FlightAware ADS-B
Wed 09:17:17 PM 32.8040 -97.0530 182° South 244 281 3,000 1,636 Climbing FlightAware ADS-B
Wed 09:17:42 PM 32.7760 -97.0540 182° South 244 281 3,900 2,400 Climbing FlightAware ADS-B
Wed 09:18:12 PM 32.7420 -97.0530 179° South 242 278 5,200 2,100 Climbing FlightAware ADS-B
Wed 09:18:42 PM 32.7070 -97.0490 175° South 256 295 6,000 1,855 Climbing FlightAware ADS-B
Wed 09:19:07 PM 32.6800 -97.0380 161° South 262 302 6,900 1,800 Climbing FlightAware ADS-B
Wed 09:19:22 PM 32.6630 -97.0280 154° Southeast 276 318 7,200 1,733 Climbing FlightAware ADS-B
Wed 09:19:52 PM 32.6260 -97.0070 154° Southeast 284 327 8,200 1,964 Climbing FlightAware ADS-B
Wed 09:20:17 PM 32.5990 -96.9920 155° Southeast 290 334 9,000 1,971 Climbing FlightAware ADS-B
Wed 09:21:02 PM 32.5410 -96.9590 154° Southeast 302 348 10,500 1,482 Climbing FlightAware ADS-B
Wed 09:21:42 PM 32.4880 -96.9300 155° Southeast 339 390 11,100 1,200 Climbing FlightAware ADS-B
Wed 09:22:22 PM 32.4270 -96.8960 155° Southeast 364 419 12,100 1,412 Climbing FlightAware ADS-B
Wed 09:23:07 PM 32.3580 -96.8560 154° Southeast 389 448 13,100 1,271 Climbing FlightAware ADS-B
Wed 09:23:47 PM 32.2870 -96.8180 156° South 416 479 13,900 1,694 Climbing FlightAware ADS-B
Wed 09:24:32 PM 32.2040 -96.7850 161° South 422 486 15,500 2,074 Climbing FlightAware ADS-B
Wed 09:25:08 PM 32.1320 -96.7573 162° South 431 496 16,700 1,823 Climbing FlightAware ADS-B
Wed 09:25:51 PM 32.0502 -96.7263 162° South 439 505 17,900 1,703 Climbing FlightAware ADS-B
Wed 09:26:22 PM 31.9880 -96.7027 162° South 453 521 18,800 1,770 Climbing FlightAware ADS-B
Wed 09:26:52 PM 31.9270 -96.6796 162° South 459 528 19,700 1,770 Climbing FlightAware ADS-B
Wed 09:27:23 PM 31.8653 -96.6561 162° South 465 535 20,600 1,791 Climbing FlightAware ADS-B
Wed 09:27:59 PM 31.7913 -96.6256 161° South 473 544 21,700 1,653 Climbing FlightAware ADS-B
Wed 09:29:01 PM 31.6604 -96.5714 161° South 483 556 23,300 1,613 Climbing FlightAware ADS-B
Wed 09:29:32 PM 31.5951 -96.5449 161° South 486 559 24,200 1,415 Climbing FlightAware ADS-B
Wed 09:31:04 PM 31.3965 -96.4679 163° South 500 575 26,200 1,268 Climbing FlightAware ADS-B
Wed 09:31:35 PM 31.3265 -96.4422 163° South 504 580 26,800 1,161 Climbing FlightAware ADS-B
Wed 09:32:06 PM 31.2586 -96.4170 162° South 507 583 27,400 1,174 Climbing FlightAware ADS-B
Wed 09:32:21 PM 31.2237 -96.4037 162° South 510 587 27,700 1,250 Climbing FlightAware ADS-B
Wed 09:32:30 PM 31.2033 -96.3937 157° South 515 593 27,900 1,154 Climbing FlightAware ADS-B
Wed 09:32:47 PM 31.1689 -96.3692 146° Southeast 524 603 28,200 1,029 Climbing FlightAware ADS-B
Wed 09:33:05 PM 31.1365 -96.3343 133° Southeast 531 611 28,500 987 Climbing FlightAware ADS-B
Wed 09:34:06 PM 31.0484 -96.1933 125° Southeast 539 620 29,500 989 Climbing FlightAware ADS-B
Wed 09:34:36 PM 31.0044 -96.1210 125° Southeast 540 621 30,000 1,200 Climbing FlightAware ADS-B
Wed 09:35:06 PM 30.9608 -96.0496 125° Southeast 536 617 30,700 1,279 Climbing FlightAware ADS-B
Wed 09:35:37 PM 30.9173 -95.9793 126° Southeast 538 619 31,300 1,121 Climbing FlightAware ADS-B
Wed 09:36:37 PM 30.8293 -95.8372 126° Southeast 536 617 32,400 1,019 Climbing FlightAware ADS-B
Wed 09:39:09 PM 30.6118 -95.4886 126° Southeast 524 603 34,900 857 Climbing FlightAware ADS-B
Wed 09:39:39 PM 30.5685 -95.4196 126° Southeast 523 602 35,000 98 Climbing FlightAware ADS-B
Wed 09:40:10 PM 30.5253 -95.3509 126° Southeast 523 602 35,000  Level FlightAware ADS-B
Wed 09:41:10 PM 30.4395 -95.2146 126° Southeast 522 601 35,000  Level FlightAware ADS-B
Wed 09:42:11 PM 30.3524 -95.0765 126° Southeast 521 600 35,000  Level FlightAware ADS-B
Wed 09:42:41 PM 30.3094 -95.0085 126° Southeast 520 598 35,000  Level FlightAware ADS-B
Wed 09:44:12 PM 30.1794 -94.8042 126° Southeast 522 601 35,000  Level FlightAware ADS-B
Wed 09:45:43 PM 30.0499 -94.6013 126° Southeast 521 600 35,000  Level FlightAware ADS-B
Wed 09:46:13 PM 30.0068 -94.5340 126° Southeast 521 600 35,000  Level FlightAware ADS-B
Wed 09:46:39 PM 29.9684 -94.4765 131° Southeast 519 597 35,000  Level FlightAware ADS-B
Wed 09:48:24 PM 29.7758 -94.2936 140° Southeast 518 596 35,000  Level FlightAware ADS-B
Wed 09:48:41 PM 29.7442 -94.2628 140° Southeast 517 595 35,000  Level FlightAware ADS-B
Wed 09:49:12 PM 29.6874 -94.2111 142° Southeast 514 592 35,000  Level FlightAware ADS-B
Wed 09:51:47 PM 29.3989 -93.9445 141° Southeast 516 594 35,000  Level FlightAware ADS-B
Wed 09:52:33 PM 29.3144 -93.8662 141° Southeast 518 596 35,000  Level FlightAware ADS-B
Wed 09:53:04 PM 29.2568 -93.8130 141° Southeast 520 598 35,000  Level FlightAware ADS-B
Wed 09:53:35 PM 29.1984 -93.7592 141° Southeast 522 601 35,000  Level FlightAware ADS-B
Wed 09:54:06 PM 29.1402 -93.7058 141° Southeast 522 601 35,000  Level FlightAware ADS-B
Wed 09:54:36 PM 29.0821 -93.6526 141° Southeast 523 602 35,000  Level FlightAware ADS-B
Wed 09:55:08 PM 29.0235 -93.5991 141° Southeast 523 602 35,000  Level FlightAware ADS-B
Wed 09:55:45 PM 28.9516 -93.5335 141° Southeast 523 602 35,000 -56 Level FlightAware ADS-B
Wed 09:56:56 PM 28.8336 -93.4244 141° Southeast 524 603 34,900  Descending Houston Center
Wed 09:57:57 PM 28.7208 -93.3219 141° Southeast 520 598 35,000  Climbing Houston Center
Wed 09:58:58 PM 28.6083 -93.2203 142° Southeast 516 594 34,900 -49 Descending Houston Center
Wed 09:59:59 PM 28.4950 -93.1183 142° Southeast 520 598 34,900  Level Houston Center
Wed 10:01:01 PM 28.3817 -93.0153 141° Southeast 522 601 34,900 49 Level Houston Center
Wed 10:02:02 PM 28.2661 -92.9122 142° Southeast 526 605 35,000 49 Climbing Houston Center
Wed 10:03:03 PM 28.1281 -92.7906 142° Southeast 526 605 35,000  Level Houston Center
Wed 10:08:41 PM 27.4735 -92.2102 142° Southeast 526 605 35,000 -16 Level FlightAware ADS-B
Wed 10:09:10 PM 27.4381 -92.1797 142° Southeast 525 604 34,900 -66 Descending Houston Center
Wed 10:10:12 PM 27.3236 -92.0789 142° Southeast 523 602 34,900  Level Houston Center
Wed 10:11:13 PM 27.2089 -91.9792 142° Southeast 522 601 34,900 Level Houston Center
Wed 10:13:00 PM 27.0168 -91.8114 144° Southeast  Level FlightAware Approximate
Wed 10:20:00 PM 26.2375 -91.1946 145° Southeast  Level FlightAware Approximate
Wed 10:21:00 PM 26.1261 -91.1069 145° Southeast  Level FlightAware Approximate
Wed 10:22:00 PM 26.0146 -91.0194 145° Southeast  Level FlightAware Approximate
Wed 10:23:00 PM 25.9031 -90.9320 145° Southeast  Level FlightAware Approximate
Wed 10:24:00 PM 25.7916 -90.8449 145° Southeast  Level FlightAware Approximate
Wed 10:25:00 PM 25.6800 -90.7578 145° Southeast  Level FlightAware Approximate
Wed 10:26:00 PM 25.5683 -90.6710 145° Southeast  Level FlightAware Approximate
Wed 10:27:00 PM 25.4566 -90.5843 145° Southeast  Level FlightAware Approximate
Wed 10:28:00 PM 25.3448 -90.4978 145° Southeast  Level FlightAware Approximate
Wed 10:29:00 PM 25.2330 -90.4114 145° Southeast  Level FlightAware Approximate
Wed 10:30:00 PM 25.1211 -90.3252 145° Southeast  Level FlightAware Approximate
Wed 10:31:00 PM 25.0092 -90.2391 145° Southeast  Level FlightAware Approximate
Wed 10:32:00 PM 24.8973 -90.1532 145° Southeast  Level FlightAware Approximate
Wed 10:33:00 PM 24.7852 -90.0675 145° Southeast  Level FlightAware Approximate
Wed 10:34:00 PM 24.6732 -89.9819 145° Southeast  Level FlightAware Approximate
Wed 10:35:00 PM 24.5629 -89.8979 145° Southeast  Level FlightAware Approximate
Wed 10:36:00 PM 24.4660 -89.7998 119° Southeast  Level FlightAware Approximate
Wed 10:37:00 PM 24.3999 -89.6716 119° Southeast  Level FlightAware Approximate
Wed 10:38:00 PM 24.3337 -89.5435 120° Southeast  Level FlightAware Approximate
Wed 10:39:00 PM 24.2674 -89.4155 120° Southeast  Level FlightAware Approximate
Wed 10:40:00 PM 24.2010 -89.2877 120° Southeast  Level FlightAware Approximate
Wed 10:40:47 PM 24.0060 -88.8870 120° Southeast 538 619 35,000  Level FlightAware ADS-B
Wed 10:41:27 PM 23.9610 -88.7950 118° Southeast 537 618 35,000  Level FlightAware ADS-B
Wed 10:42:12 PM 23.9040 -88.6840 119° Southeast 539 620 35,000  Level FlightAware ADS-B
Wed 10:42:52 PM 23.8570 -88.5930 119° Southeast 539 620 35,000  Level FlightAware ADS-B
Wed 10:43:37 PM 23.8000 -88.4800 119° Southeast 539 620 35,000  Level FlightAware ADS-B
Wed 10:44:17 PM 23.7500 -88.3830 119° Southeast 539 620 35,000  Level FlightAware ADS-B
Wed 10:45:02 PM 23.6970 -88.2800 119° Southeast 540 621 35,000  Level FlightAware ADS-B
Wed 10:45:37 PM 23.6600 -88.2070 119° Southeast 540 621 35,000  Level FlightAware ADS-B
Wed 10:46:27 PM 23.5940 -88.0790 119° Southeast 538 619 35,000  Level FlightAware ADS-B
Wed 10:47:07 PM 23.5440 -87.9810 119° Southeast 538 619 35,000  Level FlightAware ADS-B
Wed 10:47:52 PM 23.4900 -87.8770 120° Southeast 538 619 35,000  Level FlightAware ADS-B
Wed 10:48:32 PM 23.4420 -87.7830 119° Southeast 537 618 35,000  Level FlightAware ADS-B
Wed 10:49:12 PM 23.3940 -87.6890 119° Southeast 538 619 35,000  Level FlightAware ADS-B
Wed 10:49:57 PM 23.3390 -87.5790 119° Southeast 538 619 35,000  Level FlightAware ADS-B
Wed 10:50:37 PM 23.2900 -87.4840 119° Southeast 539 620 35,000  Level FlightAware ADS-B
Wed 10:51:17 PM 23.2420 -87.3880 119° Southeast 540 621 35,000  Level FlightAware ADS-B
Wed 10:52:02 PM 23.1890 -87.2840 119° Southeast 539 620 35,000  Level FlightAware ADS-B
Wed 10:52:42 PM 23.1410 -87.1900 119° Southeast 540 621 35,000  Level FlightAware ADS-B
Wed 10:53:27 PM 23.0860 -87.0810 119° Southeast 540 621 35,000  Level FlightAware ADS-B
Wed 10:54:07 PM 23.0370 -86.9870 120° Southeast 539 620 35,000  Level FlightAware ADS-B
Wed 10:54:47 PM 22.9880 -86.8910 119° Southeast 538 619 35,000  Level FlightAware ADS-B
Wed 10:55:32 PM 22.9340 -86.7860 119° Southeast 538 619 35,000  Level FlightAware ADS-B
Wed 10:56:12 PM 22.8870 -86.6940 119° Southeast 537 618 35,000  Level FlightAware ADS-B
Wed 10:56:57 PM 22.8310 -86.5850 119° Southeast 537 618 35,000  Level FlightAware ADS-B
Wed 10:57:37 PM 22.7820 -86.4920 120° Southeast 536 617 35,000  Level FlightAware ADS-B
Wed 10:58:17 PM 22.7280 -86.4000 122° Southeast 535 616 35,000  Level FlightAware ADS-B
Wed 10:59:02 PM 22.6680 -86.3060 125° Southeast 535 616 35,000  Level FlightAware ADS-B
Wed 10:59:42 PM 22.6100 -86.2150 125° Southeast 535 616 35,000  Level FlightAware ADS-B
Wed 11:00:27 PM 22.5450 -86.1150 125° Southeast 535 616 35,000  Level FlightAware ADS-B
Wed 11:01:07 PM 22.4890 -86.0270 125° Southeast 536 617 35,000  Level FlightAware ADS-B
Wed 11:01:47 PM 22.4370 -85.9360 122° Southeast 538 619 35,000  Level FlightAware ADS-B
Wed 11:02:32 PM 22.3830 -85.8320 119° Southeast 538 619 35,000  Level FlightAware ADS-B
Wed 11:03:12 PM 22.3340 -85.7380 119° Southeast 539 620 35,000  Level FlightAware ADS-B
Wed 11:03:52 PM 22.2860 -85.6460 119° Southeast 539 620 35,000  Level FlightAware ADS-B
Wed 11:04:37 PM 22.2280 -85.5360 120° Southeast 538 619 35,000  Level FlightAware ADS-B
Wed 11:05:17 PM 22.1800 -85.4450 120° Southeast 538 619 35,000  Level FlightAware ADS-B
Wed 11:06:02 PM 22.1250 -85.3410 120° Southeast 537 618 35,000  Level FlightAware ADS-B
Wed 11:06:42 PM 22.0760 -85.2480 120° Southeast 537 618 35,000  Level FlightAware ADS-B
Wed 11:07:22 PM 22.0270 -85.1540 119° Southeast 538 619 35,000  Level FlightAware ADS-B
Wed 11:08:07 PM 21.9720 -85.0510 120° Southeast 539 620 35,000  Level FlightAware ADS-B
Wed 11:08:47 PM 21.9210 -84.9560 120° Southeast 539 620 35,000  Level FlightAware ADS-B
Wed 11:09:27 PM 21.8730 -84.8650 120° Southeast 539 620 35,000  Level FlightAware ADS-B
Wed 11:10:12 PM 21.8160 -84.7560 119° Southeast 538 619 35,000  Level FlightAware ADS-B
Wed 11:10:57 PM 21.7630 -84.6570 120° Southeast 538 619 35,000  Level FlightAware ADS-B
Wed 11:11:32 PM 21.7240 -84.5810 119° Southeast 538 619 35,000  Level FlightAware ADS-B
Wed 11:12:17 PM 21.6670 -84.4730 120° Southeast 538 619 35,000  Level FlightAware ADS-B
Wed 11:12:57 PM 21.6260 -84.3940 119° Southeast 538 619 35,000  Level FlightAware ADS-B
Wed 11:13:37 PM 21.5850 -84.3140 119° Southeast 538 619 35,000  Level FlightAware ADS-B
Wed 11:14:17 PM 21.5430 -84.2340 119° Southeast 538 619 35,000  Level FlightAware ADS-B
Wed 11:15:07 PM 21.4920 -84.1350 119° Southeast 538 619 35,000  Level FlightAware ADS-B
Wed 11:15:47 PM 21.4510 -84.0550 119° Southeast 538 619 35,000  Level FlightAware ADS-B
Wed 11:16:27 PM 21.4100 -83.9760 119° Southeast 538 619 35,000  Level FlightAware ADS-B
Wed 11:17:07 PM 21.3690 -83.8960 119° Southeast 538 619 35,000  Level FlightAware ADS-B
Wed 11:17:47 PM 21.3280 -83.8170 119° Southeast 538 619 35,000  Level FlightAware ADS-B
Wed 11:18:37 PM 21.2770 -83.7180 119° Southeast 538 619 35,000  Level FlightAware ADS-B
Wed 11:19:17 PM 21.2360 -83.6380 119° Southeast 538 619 35,000  Level FlightAware ADS-B
Wed 11:19:57 PM 21.1950 -83.5590 119° Southeast 538 619 35,000  Level FlightAware ADS-B
Wed 11:20:37 PM 21.1540 -83.4790 119° Southeast 538 619 35,000  Level FlightAware ADS-B
Wed 11:21:17 PM 21.1130 -83.4000 119° Southeast 538 619 35,000 Level FlightAware ADS-B
Wed 11:23:00 PM 20.9879 -83.1928 123° Southeast  Level FlightAware Approximate
Wed 11:24:00 PM 20.9149 -83.0723 123° Southeast  Level FlightAware Approximate
Wed 11:25:00 PM 20.8418 -82.9520 123° Southeast  Level FlightAware Approximate
Wed 11:26:00 PM 20.7686 -82.8317 123° Southeast  Level FlightAware Approximate
Wed 11:27:00 PM 20.6953 -82.7115 123° Southeast  Level FlightAware Approximate
Wed 11:28:00 PM 20.6220 -82.5915 123° Southeast  Level FlightAware Approximate
Wed 11:29:00 PM 20.5486 -82.4715 123° Southeast  Level FlightAware Approximate
Wed 11:30:00 PM 20.4751 -82.3517 123° Southeast  Level FlightAware Approximate
Wed 11:31:00 PM 20.4015 -82.2320 123° Southeast  Level FlightAware Approximate
Wed 11:32:00 PM 20.3278 -82.1125 123° Southeast  Level FlightAware Approximate
Wed 11:33:00 PM 20.2540 -81.9930 123° Southeast  Level FlightAware Approximate
Wed 11:34:00 PM 20.1802 -81.8736 123° Southeast  Level FlightAware Approximate
Wed 11:35:00 PM 20.1063 -81.7544 123° Southeast  Level FlightAware Approximate
Wed 11:36:00 PM 20.0323 -81.6353 123° Southeast  Level FlightAware Approximate
Wed 11:37:00 PM 19.9594 -81.5144 122° Southeast  Level FlightAware Approximate
Wed 11:38:00 PM 19.8882 -81.3935 122° Southeast  Level FlightAware Approximate
Wed 11:39:00 PM 19.8168 -81.2727 122° Southeast  Level FlightAware Approximate
Wed 11:40:00 PM 19.7454 -81.1520 122° Southeast  Level FlightAware Approximate
Wed 11:41:00 PM 19.6739 -81.0315 122° Southeast  Level FlightAware Approximate
Wed 11:42:00 PM 19.6023 -80.9110 122° Southeast  Level FlightAware Approximate
Wed 11:43:00 PM 19.5307 -80.7907 122° Southeast  Level FlightAware Approximate
Wed 11:44:00 PM 19.4589 -80.6704 122° Southeast  Level FlightAware Approximate
Wed 11:45:00 PM 19.3871 -80.5503 122° Southeast  Level FlightAware Approximate
Wed 11:46:00 PM 19.3152 -80.4303 122° Southeast  Level FlightAware Approximate
Wed 11:47:00 PM 19.2432 -80.3103 122° Southeast  Level FlightAware Approximate
Wed 11:48:00 PM 19.1712 -80.1905 122° Southeast  Level FlightAware Approximate
Wed 11:49:00 PM 19.0990 -80.0708 123° Southeast  Level FlightAware Approximate
Wed 11:50:00 PM 19.0268 -79.9512 123° Southeast  Level FlightAware Approximate
Wed 11:51:00 PM 18.9545 -79.8317 123° Southeast  Level FlightAware Approximate
Wed 11:52:00 PM 18.8822 -79.7123 123° Southeast  Level FlightAware Approximate
Wed 11:53:00 PM 18.8097 -79.5930 123° Southeast  Level FlightAware Approximate
Wed 11:54:00 PM 18.7372 -79.4738 123° Southeast  Level FlightAware Approximate
Wed 11:55:00 PM 18.6646 -79.3547 123° Southeast  Level FlightAware Approximate
Wed 11:56:00 PM 18.5919 -79.2357 123° Southeast  Level FlightAware Approximate
Wed 11:57:00 PM 18.5192 -79.1168 123° Southeast  Level FlightAware Approximate
Wed 11:58:00 PM 18.4464 -78.9980 123° Southeast  Level FlightAware Approximate
Wed 11:59:00 PM 18.3735 -78.8793 123° Southeast  Level FlightAware Approximate
Thu 12:00:00 AM 18.3005 -78.7607 123° Southeast  Level FlightAware Approximate
Thu 12:01:00 AM 18.2275 -78.6423 123° Southeast  Level FlightAware Approximate
Thu 12:02:00 AM 18.1544 -78.5239 123° Southeast  Level FlightAware Approximate
Thu 12:03:00 AM 18.0812 -78.4056 123° Southeast  Level FlightAware Approximate
Thu 12:04:00 AM 18.0079 -78.2874 123° Southeast  Level FlightAware Approximate
Thu 12:05:00 AM 17.9346 -78.1693 123° Southeast  Level FlightAware Approximate
Thu 12:06:00 AM 17.8612 -78.0513 123° Southeast  Level FlightAware Approximate
Thu 12:07:00 AM 17.7602 -77.9600 142° Southeast  Level FlightAware Approximate
Thu 12:08:00 AM 17.6542 -77.8736 142° Southeast  Level FlightAware Approximate
Thu 12:09:00 AM 17.5483 -77.7874 142° Southeast  Level FlightAware Approximate
Thu 12:10:00 AM 17.4422 -77.7012 142° Southeast  Level FlightAware Approximate
Thu 12:11:00 AM 17.3362 -77.6151 142° Southeast  Level FlightAware Approximate
Thu 12:12:00 AM 17.2301 -77.5292 142° Southeast  Level FlightAware Approximate
Thu 12:13:00 AM 17.1240 -77.4433 142° Southeast  Level FlightAware Approximate
Thu 12:14:00 AM 17.0178 -77.3575 142° Southeast  Level FlightAware Approximate
Thu 12:15:00 AM 16.9116 -77.2718 142° Southeast  Level FlightAware Approximate
Thu 12:16:00 AM 16.8054 -77.1862 142° Southeast  Level FlightAware Approximate
Thu 12:17:00 AM 16.6991 -77.1007 142° Southeast  Level FlightAware Approximate
Thu 12:18:00 AM 16.5928 -77.0154 142° Southeast  Level FlightAware Approximate
Thu 12:19:00 AM 16.4864 -76.9301 142° Southeast  Level FlightAware Approximate
Thu 12:20:00 AM 16.3801 -76.8448 142° Southeast  Level FlightAware Approximate
Thu 12:21:00 AM 16.2736 -76.7597 142° Southeast  Level FlightAware Approximate
Thu 12:22:00 AM 16.1672 -76.6747 143° Southeast  Level FlightAware Approximate
Thu 12:23:00 AM 16.0607 -76.5898 143° Southeast  Level FlightAware Approximate
Thu 12:24:00 AM 15.9542 -76.5049 143° Southeast  Level FlightAware Approximate
Thu 12:25:00 AM 15.8477 -76.4202 143° Southeast  Level FlightAware Approximate
Thu 12:26:00 AM 15.7411 -76.3355 143° Southeast  Level FlightAware Approximate
Thu 12:27:00 AM 15.6345 -76.2510 143° Southeast  Level FlightAware Approximate
Thu 12:28:00 AM 15.5278 -76.1665 143° Southeast  Level FlightAware Approximate
Thu 12:29:00 AM 15.4211 -76.0821 143° Southeast  Level FlightAware Approximate
Thu 12:30:00 AM 15.3144 -75.9978 143° Southeast  Level FlightAware Approximate
Thu 12:31:00 AM 15.2077 -75.9136 143° Southeast  Level FlightAware Approximate
Thu 12:32:00 AM 15.1009 -75.8294 143° Southeast  Level FlightAware Approximate
Thu 12:33:00 AM 14.9941 -75.7454 143° Southeast  Level FlightAware Approximate
Thu 12:34:00 AM 14.8873 -75.6614 143° Southeast  Level FlightAware Approximate
Thu 12:35:00 AM 14.7804 -75.5776 143° Southeast  Level FlightAware Approximate
Thu 12:36:00 AM 14.6735 -75.4938 143° Southeast  Level FlightAware Approximate
Thu 12:37:00 AM 14.5663 -75.4099 143° Southeast  Level FlightAware Approximate
Thu 12:38:00 AM 14.4592 -75.3262 143° Southeast  Level FlightAware Approximate
Thu 12:39:00 AM 14.3520 -75.2425 143° Southeast  Level FlightAware Approximate
Thu 12:40:00 AM 14.2448 -75.1589 143° Southeast  Level FlightAware Approximate
Thu 12:41:00 AM 14.1375 -75.0753 143° Southeast  Level FlightAware Approximate
Thu 12:42:00 AM 14.0302 -74.9919 143° Southeast  Level FlightAware Approximate
Thu 12:43:00 AM 13.9229 -74.9085 143° Southeast  Level FlightAware Approximate
Thu 12:44:00 AM 13.8156 -74.8252 143° Southeast  Level FlightAware Approximate
Thu 12:45:00 AM 13.7082 -74.7420 143° Southeast  Level FlightAware Approximate
Thu 12:46:00 AM 13.6009 -74.6589 143° Southeast  Level FlightAware Approximate
Thu 12:47:00 AM 13.4934 -74.5758 143° Southeast  Level FlightAware Approximate
Thu 12:48:00 AM 13.3860 -74.4928 143° Southeast  Level FlightAware Approximate
Thu 12:49:00 AM 13.2785 -74.4099 143° Southeast  Level FlightAware Approximate
Thu 12:50:00 AM 13.1710 -74.3270 143° Southeast  Level FlightAware Approximate
Thu 12:51:00 AM 13.0635 -74.2443 143° Southeast  Level FlightAware Approximate
Thu 12:52:00 AM 12.9559 -74.1616 143° Southeast  Level FlightAware Approximate
Thu 12:53:00 AM 12.8483 -74.0789 143° Southeast  Level FlightAware Approximate
Thu 12:54:00 AM 12.7408 -73.9964 143° Southeast  Level FlightAware Approximate
Thu 12:55:00 AM 12.6331 -73.9139 143° Southeast  Level FlightAware Approximate
Thu 12:56:00 AM 12.5255 -73.8315 143° Southeast  Level FlightAware Approximate
Thu 12:57:00 AM 12.4178 -73.7491 143° Southeast  Level FlightAware Approximate
Thu 12:58:00 AM 12.3101 -73.6668 143° Southeast  Level FlightAware Approximate
Thu 12:59:00 AM 12.2024 -73.5846 143° Southeast  Level FlightAware Approximate
Thu 01:00:00 AM 12.0946 -73.5025 143° Southeast  Level FlightAware Approximate
Thu 01:01:00 AM 11.9868 -73.4204 143° Southeast  Level FlightAware Approximate
Thu 01:02:00 AM 11.8790 -73.3384 143° Southeast  Level FlightAware Approximate
Thu 01:03:00 AM 11.7712 -73.2565 143° Southeast  Level FlightAware Approximate
Thu 01:04:00 AM 11.6634 -73.1746 143° Southeast  Level FlightAware Approximate
Thu 01:05:00 AM 11.5555 -73.0928 143° Southeast  Level FlightAware Approximate
Thu 01:06:00 AM 11.4476 -73.0110 143° Southeast  Level FlightAware Approximate
Thu 01:07:00 AM 11.3397 -72.9293 143° Southeast  Level FlightAware Approximate
Thu 01:08:00 AM 11.2317 -72.8477 143° Southeast  Level FlightAware Approximate
Thu 01:09:00 AM 11.1238 -72.7661 143° Southeast  Level FlightAware Approximate
Thu 01:10:00 AM 11.0158 -72.6846 143° Southeast  Level FlightAware Approximate
Thu 01:11:00 AM 10.9078 -72.6031 143° Southeast  Level FlightAware Approximate
Thu 01:12:00 AM 10.7998 -72.5218 143° Southeast  Level FlightAware Approximate
Thu 01:13:00 AM 10.6917 -72.4404 144° Southeast  Level FlightAware Approximate
Thu 01:14:00 AM 10.5836 -72.3592 144° Southeast  Level FlightAware Approximate
Thu 01:15:00 AM 10.4755 -72.2779 144° Southeast  Level FlightAware Approximate
Thu 01:16:00 AM 10.3674 -72.1968 144° Southeast  Level FlightAware Approximate
Thu 01:17:00 AM 10.2593 -72.1157 144° Southeast  Level FlightAware Approximate
Thu 01:18:00 AM 10.1511 -72.0346 144° Southeast  Level FlightAware Approximate
Thu 01:19:00 AM 10.0430 -71.9536 144° Southeast  Level FlightAware Approximate
Thu 01:20:00 AM 9.9348 -71.8727 144° Southeast  Level FlightAware Approximate
Thu 01:21:00 AM 9.8266 -71.7918 144° Southeast  Level FlightAware Approximate
Thu 01:22:00 AM 9.7184 -71.7109 144° Southeast  Level FlightAware Approximate
Thu 01:23:00 AM 9.6101 -71.6302 144° Southeast  Level FlightAware Approximate
Thu 01:24:00 AM 9.5018 -71.5494 144° Southeast  Level FlightAware Approximate
Thu 01:25:00 AM 9.3935 -71.4688 144° Southeast  Level FlightAware Approximate
Thu 01:26:00 AM 9.2852 -71.3881 144° Southeast  Level FlightAware Approximate
Thu 01:27:00 AM 9.1769 -71.3075 144° Southeast  Level FlightAware Approximate
Thu 01:28:00 AM 9.0686 -71.2270 144° Southeast  Level FlightAware Approximate
Thu 01:29:00 AM 8.9602 -71.1465 144° Southeast  Level FlightAware Approximate
Thu 01:30:00 AM 8.8518 -71.0661 144° Southeast  Level FlightAware Approximate
Thu 01:31:00 AM 8.7435 -70.9857 144° Southeast  Level FlightAware Approximate
Thu 01:32:00 AM 8.6350 -70.9054 144° Southeast  Level FlightAware Approximate
Thu 01:33:00 AM 8.5266 -70.8251 144° Southeast  Level FlightAware Approximate
Thu 01:34:00 AM 8.4182 -70.7448 144° Southeast  Level FlightAware Approximate
Thu 01:35:00 AM 8.3097 -70.6646 144° Southeast  Level FlightAware Approximate
Thu 01:36:00 AM 8.2013 -70.5845 144° Southeast  Level FlightAware Approximate
Thu 01:37:00 AM 8.0928 -70.5043 144° Southeast  Level FlightAware Approximate
Thu 01:38:00 AM 7.9843 -70.4243 144° Southeast  Level FlightAware Approximate
Thu 01:39:00 AM 7.8757 -70.3443 144° Southeast  Level FlightAware Approximate
Thu 01:40:00 AM 7.7672 -70.2643 144° Southeast  Level FlightAware Approximate
Thu 01:41:00 AM 7.6586 -70.1843 144° Southeast  Level FlightAware Approximate
Thu 01:42:00 AM 7.5501 -70.1044 144° Southeast  Level FlightAware Approximate
Thu 01:43:00 AM 7.4415 -70.0245 144° Southeast  Level FlightAware Approximate
Thu 01:44:00 AM 7.3329 -69.9447 144° Southeast  Level FlightAware Approximate
Thu 01:45:00 AM 7.2243 -69.8649 144° Southeast  Level FlightAware Approximate
Thu 01:46:00 AM 7.1157 -69.7852 144° Southeast  Level FlightAware Approximate
Thu 01:47:00 AM 7.0070 -69.7055 144° Southeast  Level FlightAware Approximate
Thu 01:48:00 AM 6.8984 -69.6258 144° Southeast  Level FlightAware Approximate
Thu 01:49:00 AM 6.7897 -69.5461 144° Southeast  Level FlightAware Approximate
Thu 01:50:00 AM 6.6810 -69.4665 144° Southeast  Level FlightAware Approximate
Thu 01:51:00 AM 6.5724 -69.3870 144° Southeast  Level FlightAware Approximate
Thu 01:52:00 AM 6.4637 -69.3074 144° Southeast  Level FlightAware Approximate
Thu 01:53:00 AM 6.3549 -69.2279 144° Southeast  Level FlightAware Approximate
Thu 01:54:00 AM 6.2462 -69.1485 144° Southeast  Level FlightAware Approximate
Thu 01:55:00 AM 6.1375 -69.0691 144° Southeast  Level FlightAware Approximate
Thu 01:56:00 AM 6.0287 -68.9896 144° Southeast  Level FlightAware Approximate
Thu 01:57:00 AM 5.9200 -68.9103 144° Southeast  Level FlightAware Approximate
Thu 01:58:00 AM 5.8112 -68.8309 144° Southeast  Level FlightAware Approximate
Thu 01:59:00 AM 5.7024 -68.7516 144° Southeast  Level FlightAware Approximate
Thu 02:00:00 AM 5.5936 -68.6724 144° Southeast  Level FlightAware Approximate
Thu 02:01:00 AM 5.4848 -68.5931 144° Southeast  Level FlightAware Approximate
Thu 02:02:00 AM 5.3760 -68.5139 144° Southeast  Level FlightAware Approximate
Thu 02:03:00 AM 5.2672 -68.4347 144° Southeast  Level FlightAware Approximate
Thu 02:04:00 AM 5.1583 -68.3556 144° Southeast  Level FlightAware Approximate
Thu 02:05:00 AM 5.0495 -68.2764 144° Southeast  Level FlightAware Approximate
Thu 02:06:00 AM 4.9406 -68.1973 144° Southeast  Level FlightAware Approximate
Thu 02:07:00 AM 4.8318 -68.1182 144° Southeast  Level FlightAware Approximate
Thu 02:08:00 AM 4.7229 -68.0392 144° Southeast  Level FlightAware Approximate
Thu 02:09:00 AM 4.6140 -67.9602 144° Southeast  Level FlightAware Approximate
Thu 02:10:00 AM 4.5051 -67.8811 144° Southeast  Level FlightAware Approximate
Thu 02:11:00 AM 4.3962 -67.8022 144° Southeast  Level FlightAware Approximate
Thu 02:12:00 AM 4.2873 -67.7232 144° Southeast  Level FlightAware Approximate
Thu 02:13:00 AM 4.1784 -67.6443 144° Southeast  Level FlightAware Approximate
Thu 02:14:00 AM 4.0695 -67.5654 144° Southeast  Level FlightAware Approximate
Thu 02:15:00 AM 3.9606 -67.4865 144° Southeast  Level FlightAware Approximate
Thu 02:16:00 AM 3.8516 -67.4076 144° Southeast  Level FlightAware Approximate
Thu 02:17:00 AM 3.7427 -67.3288 144° Southeast  Level FlightAware Approximate
Thu 02:18:00 AM 3.6337 -67.2499 144° Southeast  Level FlightAware Approximate
Thu 02:19:00 AM 3.5247 -67.1711 144° Southeast  Level FlightAware Approximate
Thu 02:20:00 AM 3.4158 -67.0923 144° Southeast  Level FlightAware Approximate
Thu 02:21:00 AM 3.3068 -67.0135 144° Southeast  Level FlightAware Approximate
Thu 02:22:00 AM 3.1978 -66.9348 144° Southeast  Level FlightAware Approximate
Thu 02:23:00 AM 3.0888 -66.8560 144° Southeast  Level FlightAware Approximate
Thu 02:24:00 AM 2.9799 -66.7773 144° Southeast  Level FlightAware Approximate
Thu 02:25:00 AM 2.8709 -66.6986 144° Southeast  Level FlightAware Approximate
Thu 02:26:00 AM 2.7619 -66.6199 144° Southeast  Level FlightAware Approximate
Thu 02:27:00 AM 2.6528 -66.5412 144° Southeast  Level FlightAware Approximate
Thu 02:28:00 AM 2.5438 -66.4625 144° Southeast  Level FlightAware Approximate
Thu 02:29:00 AM 2.4348 -66.3839 144° Southeast  Level FlightAware Approximate
Thu 02:30:00 AM 2.3258 -66.3053 144° Southeast  Level FlightAware Approximate
Thu 02:31:00 AM 2.2168 -66.2266 144° Southeast  Level FlightAware Approximate
Thu 02:32:00 AM 2.1077 -66.1480 144° Southeast  Level FlightAware Approximate
Thu 02:33:00 AM 1.9987 -66.0694 144° Southeast  Level FlightAware Approximate
Thu 02:34:00 AM 1.8897 -65.9908 144° Southeast  Level FlightAware Approximate
Thu 02:35:00 AM 1.7806 -65.9122 144° Southeast  Level FlightAware Approximate
Thu 02:36:00 AM 1.6716 -65.8336 144° Southeast  Level FlightAware Approximate
Thu 02:37:00 AM 1.5625 -65.7551 144° Southeast  Level FlightAware Approximate
Thu 02:38:00 AM 1.4535 -65.6765 144° Southeast  Level FlightAware Approximate
Thu 02:39:00 AM 1.3444 -65.5979 144° Southeast  Level FlightAware Approximate
Thu 02:40:00 AM 1.2354 -65.5194 144° Southeast  Level FlightAware Approximate
Thu 02:41:00 AM 1.1263 -65.4408 144° Southeast  Level FlightAware Approximate
Thu 02:42:00 AM 1.0172 -65.3623 144° Southeast  Level FlightAware Approximate
Thu 02:43:00 AM 0.9082 -65.2838 144° Southeast  Level FlightAware Approximate
Thu 02:44:00 AM 0.7991 -65.2053 144° Southeast  Level FlightAware Approximate
Thu 02:45:00 AM 0.6901 -65.1267 144° Southeast  Level FlightAware Approximate
Thu 02:46:00 AM 0.5810 -65.0482 144° Southeast  Level FlightAware Approximate
Thu 02:47:00 AM 0.4719 -64.9697 144° Southeast  Level FlightAware Approximate
Thu 02:48:00 AM 0.3628 -64.8912 144° Southeast  Level FlightAware Approximate
Thu 02:49:00 AM 0.2538 -64.8127 144° Southeast  Level FlightAware Approximate
Thu 02:50:00 AM 0.1447 -64.7342 144° Southeast  Level FlightAware Approximate
Thu 02:51:00 AM 0.0356 -64.6557 144° Southeast  Level FlightAware Approximate
Thu 02:52:00 AM -0.0734 -64.5772 144° Southeast  Level FlightAware Approximate
Thu 02:53:00 AM -0.1825 -64.4987 144° Southeast  Level FlightAware Approximate
Thu 02:54:00 AM -0.2916 -64.4202 144° Southeast  Level FlightAware Approximate
Thu 02:55:00 AM -0.4006 -64.3416 144° Southeast  Level FlightAware Approximate
Thu 02:56:00 AM -0.5097 -64.2631 144° Southeast  Level FlightAware Approximate
Thu 02:57:00 AM -0.6188 -64.1846 144° Southeast  Level FlightAware Approximate
Thu 02:58:00 AM -0.7279 -64.1061 144° Southeast  Level FlightAware Approximate
Thu 02:59:00 AM -0.8369 -64.0276 144° Southeast  Level FlightAware Approximate
Thu 03:00:00 AM -0.9460 -63.9491 144° Southeast  Level FlightAware Approximate
Thu 03:01:00 AM -1.0551 -63.8705 144° Southeast  Level FlightAware Approximate
Thu 03:02:00 AM -1.1641 -63.7920 144° Southeast  Level FlightAware Approximate
Thu 03:03:00 AM -1.2732 -63.7134 144° Southeast  Level FlightAware Approximate
Thu 03:04:00 AM -1.3822 -63.6349 144° Southeast  Level FlightAware Approximate
Thu 03:04:18 AM -1.3750 -61.4040 144° Southeast 489 563 37,000  Level FlightAware ADS-B
Thu 03:04:58 AM -1.4460 -61.3490 142° Southeast 487 560 37,000  Level FlightAware ADS-B
Thu 03:05:00 AM -1.4913 -63.5563 144° Southeast  Level FlightAware Approximate
Thu 03:05:43 AM -1.5300 -61.2850 143° Southeast 487 560 37,000  Level FlightAware ADS-B
Thu 03:06:23 AM -1.6000 -61.2310 142° Southeast 487 560 37,000  Level FlightAware ADS-B
Thu 03:07:03 AM -1.6740 -61.1750 143° Southeast 488 562 37,000  Level FlightAware ADS-B
Thu 03:07:48 AM -1.7520 -61.1150 142° Southeast 489 563 37,000  Level FlightAware ADS-B
Thu 03:08:28 AM -1.8240 -61.0600 143° Southeast 488 562 37,000  Level FlightAware ADS-B
Thu 03:09:13 AM -1.9040 -60.9980 142° Southeast 489 563 37,000  Level FlightAware ADS-B
Thu 03:09:53 AM -1.9790 -60.9400 142° Southeast 489 563 37,000  Level FlightAware ADS-B
Thu 03:10:38 AM -2.0570 -60.8800 142° Southeast 489 563 37,000  Level FlightAware ADS-B
Thu 03:11:18 AM -2.1310 -60.8240 143° Southeast 489 563 37,000  Level FlightAware ADS-B
Thu 03:11:58 AM -2.2020 -60.7690 142° Southeast 491 565 37,000  Level FlightAware ADS-B
Thu 03:12:43 AM -2.2850 -60.7050 142° Southeast 491 565 37,000  Level FlightAware ADS-B
Thu 03:13:23 AM -2.3580 -60.6490 143° Southeast 493 567 37,000  Level FlightAware ADS-B
Thu 03:14:08 AM -2.4380 -60.5870 142° Southeast 494 568 37,000  Level FlightAware ADS-B
Thu 03:14:48 AM -2.5080 -60.5330 142° Southeast 496 571 37,000  Level FlightAware ADS-B
Thu 03:15:28 AM -2.5790 -60.4700 138° Southeast 497 572 37,000  Level FlightAware ADS-B
Thu 03:16:13 AM -2.6580 -60.3990 138° Southeast 499 574 37,000  Level FlightAware ADS-B
Thu 03:16:53 AM -2.7250 -60.3380 138° Southeast 499 574 37,000  Level FlightAware ADS-B
Thu 03:17:38 AM -2.8010 -60.2700 138° Southeast 500 575 37,000  Level FlightAware ADS-B
Thu 03:18:18 AM -2.8700 -60.2080 138° Southeast 500 575 37,000  Level FlightAware ADS-B
Thu 03:18:58 AM -2.9400 -60.1450 138° Southeast 499 574 37,000  Level FlightAware ADS-B
Thu 03:19:43 AM -3.0200 -60.0740 138° Southeast 496 571 37,000  Level FlightAware ADS-B
Thu 03:20:23 AM -3.0980 -60.0280 150° Southeast 491 565 37,000  Level FlightAware ADS-B
Thu 03:21:08 AM -3.1870 -59.9860 155° Southeast 489 563 37,000  Level FlightAware ADS-B
Thu 03:21:48 AM -3.2710 -59.9480 156° South 490 564 37,000  Level FlightAware ADS-B
Thu 03:22:28 AM -3.3520 -59.9110 155° Southeast 491 565 37,000  Level FlightAware ADS-B
Thu 03:23:13 AM -3.4480 -59.8660 155° Southeast 491 565 37,000  Level FlightAware ADS-B
Thu 03:23:53 AM -3.5320 -59.8270 155° Southeast 492 566 37,000  Level FlightAware ADS-B
Thu 03:24:38 AM -3.6220 -59.7840 155° Southeast 494 568 37,000  Level FlightAware ADS-B
Thu 03:25:18 AM -3.7010 -59.7400 151° Southeast 495 570 37,000  Level FlightAware ADS-B
Thu 03:25:58 AM -3.7810 -59.6930 150° Southeast 496 571 37,000  Level FlightAware ADS-B
Thu 03:26:43 AM -3.8730 -59.6390 150° Southeast 496 571 37,000  Level FlightAware ADS-B
Thu 03:27:23 AM -3.9520 -59.5930 150° Southeast 497 572 37,000  Level FlightAware ADS-B
Thu 03:28:08 AM -4.0390 -59.5420 150° Southeast 497 572 37,000  Level FlightAware ADS-B
Thu 03:28:48 AM -4.1210 -59.4950 150° Southeast 498 573 37,000  Level FlightAware ADS-B
Thu 03:29:43 AM -4.2240 -59.4340 149° Southeast 499 574 37,000  Level FlightAware ADS-B
Thu 03:30:23 AM -4.2910 -59.3930 149° Southeast 499 574 37,000  Level FlightAware ADS-B
Thu 03:31:03 AM -4.3590 -59.3530 150° Southeast 499 574 37,000  Level FlightAware ADS-B
Thu 03:31:43 AM -4.4260 -59.3120 149° Southeast 499 574 37,000  Level FlightAware ADS-B
Thu 03:32:33 AM -4.5100 -59.2620 149° Southeast 499 574 37,000  Level FlightAware ADS-B
Thu 03:33:13 AM -4.5770 -59.2210 149° Southeast 499 574 37,000  Level FlightAware ADS-B
Thu 03:33:53 AM -4.6450 -59.1800 149° Southeast 499 574 37,000  Level FlightAware ADS-B
Thu 03:34:33 AM -4.7120 -59.1400 149° Southeast 499 574 37,000  Level FlightAware ADS-B
Thu 03:35:13 AM -4.7790 -59.0990 149° Southeast 499 574 37,000  Level FlightAware ADS-B
Thu 03:36:03 AM -4.8630 -59.0490 149° Southeast 499 574 37,000  Level FlightAware ADS-B
Thu 03:36:43 AM -4.9310 -59.0080 149° Southeast 499 574 37,000  Level FlightAware ADS-B
Thu 03:37:23 AM -4.9980 -58.9670 149° Southeast 499 574 37,000  Level FlightAware ADS-B
Thu 03:38:03 AM -5.0650 -58.9270 149° Southeast 499 574 37,000  Level FlightAware ADS-B
Thu 03:38:43 AM -5.1330 -58.8860 149° Southeast 499 574 37,000 18 Level FlightAware ADS-B
Thu 03:41:00 AM -5.3932 -58.7227 148° Southeast  Level Estimated
Thu 03:42:00 AM -5.5072 -58.6512 148° Southeast  Level Estimated
Thu 03:43:00 AM -5.6212 -58.5796 148° Southeast  Level Estimated
Thu 03:44:00 AM -5.7351 -58.5080 148° Southeast  Level Estimated
Thu 03:45:00 AM -5.8490 -58.4364 148° Southeast  Level Estimated
Thu 03:46:00 AM -5.9630 -58.3647 148° Southeast  Level Estimated
Thu 03:47:00 AM -6.0769 -58.2930 148° Southeast  Level Estimated
Thu 03:48:00 AM -6.1908 -58.2213 148° Southeast  Level Estimated
Thu 03:49:00 AM -6.3047 -58.1496 148° Southeast  Level Estimated
Thu 03:50:00 AM -6.4186 -58.0778 148° Southeast  Level Estimated
Thu 03:51:00 AM -6.5325 -58.0060 148° Southeast  Level Estimated
Thu 03:52:00 AM -6.6463 -57.9341 148° Southeast  Level Estimated
Thu 03:53:00 AM -6.7602 -57.8623 148° Southeast  Level Estimated
Thu 03:54:00 AM -6.8740 -57.7903 148° Southeast  Level Estimated
Thu 03:55:00 AM -6.9879 -57.7184 148° Southeast  Level Estimated
Thu 03:56:00 AM -7.1017 -57.6464 148° Southeast  Level Estimated
Thu 03:57:00 AM -7.2155 -57.5744 148° Southeast  Level Estimated
Thu 03:58:00 AM -7.3293 -57.5023 148° Southeast  Level Estimated
Thu 03:59:00 AM -7.4431 -57.4302 148° Southeast  Level Estimated
Thu 04:00:00 AM -7.5569 -57.3581 148° Southeast  Level Estimated
Thu 04:01:00 AM -7.6707 -57.2859 148° Southeast  Level Estimated
Thu 04:02:00 AM -7.7844 -57.2137 148° Southeast  Level Estimated
Thu 04:03:00 AM -7.8982 -57.1415 148° Southeast  Level Estimated
Thu 04:04:00 AM -8.0119 -57.0692 148° Southeast  Level Estimated
Thu 04:05:00 AM -8.1256 -56.9969 148° Southeast  Level Estimated
Thu 04:06:00 AM -8.2393 -56.9245 148° Southeast  Level Estimated
Thu 04:07:00 AM -8.3530 -56.8521 148° Southeast  Level Estimated
Thu 04:08:00 AM -8.4667 -56.7797 148° Southeast  Level Estimated
Thu 04:09:00 AM -8.5804 -56.7072 148° Southeast  Level Estimated
Thu 04:10:00 AM -8.6940 -56.6346 148° Southeast  Level Estimated
Thu 04:11:00 AM -8.8076 -56.5620 148° Southeast  Level Estimated
Thu 04:12:00 AM -8.9213 -56.4894 148° Southeast  Level Estimated
Thu 04:13:00 AM -9.0349 -56.4168 148° Southeast  Level Estimated
Thu 04:14:00 AM -9.1485 -56.3440 148° Southeast  Level Estimated
Thu 04:15:00 AM -9.2621 -56.2713 148° Southeast  Level Estimated
Thu 04:16:00 AM -9.3756 -56.1985 148° Southeast  Level Estimated
Thu 04:17:00 AM -9.4892 -56.1256 148° Southeast  Level Estimated
Thu 04:18:00 AM -9.6035 -56.0522 148° Southeast  Level Estimated
Thu 04:19:00 AM -9.7179 -55.9787 148° Southeast  Level Estimated
Thu 04:20:00 AM -9.8322 -55.9052 148° Southeast  Level Estimated
Thu 04:21:00 AM -9.9465 -55.8316 148° Southeast  Level Estimated
Thu 04:22:00 AM -10.0608 -55.7580 148° Southeast  Level Estimated
Thu 04:23:00 AM -10.1751 -55.6843 148° Southeast  Level Estimated
Thu 04:24:00 AM -10.2893 -55.6105 148° Southeast  Level Estimated
Thu 04:25:00 AM -10.4036 -55.5367 148° Southeast  Level Estimated
Thu 04:26:00 AM -10.5178 -55.4629 148° Southeast  Level Estimated
Thu 04:27:00 AM -10.6320 -55.3890 148° Southeast  Level Estimated
Thu 04:28:00 AM -10.7462 -55.3150 148° Southeast  Level Estimated
Thu 04:29:00 AM -10.8604 -55.2410 148° Southeast  Level Estimated
Thu 04:30:00 AM -10.9746 -55.1670 148° Southeast  Level Estimated
Thu 04:31:00 AM -11.0887 -55.0928 147° Southeast  Level Estimated
Thu 04:32:00 AM -11.2028 -55.0186 147° Southeast  Level Estimated
Thu 04:33:00 AM -11.3169 -54.9444 147° Southeast  Level Estimated
Thu 04:34:00 AM -11.4310 -54.8701 147° Southeast  Level Estimated
Thu 04:35:00 AM -11.5451 -54.7957 147° Southeast  Level Estimated
Thu 04:36:00 AM -11.6591 -54.7213 147° Southeast  Level Estimated
Thu 04:37:00 AM -11.7731 -54.6468 147° Southeast  Level Estimated
Thu 04:38:00 AM -11.8871 -54.5723 147° Southeast  Level Estimated
Thu 04:39:00 AM -12.0011 -54.4977 147° Southeast  Level Estimated
Thu 04:40:00 AM -12.1151 -54.4230 147° Southeast  Level Estimated
Thu 04:41:00 AM -12.2291 -54.3483 147° Southeast  Level Estimated
Thu 04:42:00 AM -12.3430 -54.2735 147° Southeast  Level Estimated
Thu 04:43:00 AM -12.4569 -54.1986 147° Southeast  Level Estimated
Thu 04:44:00 AM -12.5708 -54.1237 147° Southeast  Level Estimated
Thu 04:45:00 AM -12.6847 -54.0487 147° Southeast  Level Estimated
Thu 04:46:00 AM -12.7985 -53.9736 147° Southeast  Level Estimated
Thu 04:47:00 AM -12.9123 -53.8985 147° Southeast  Level Estimated
Thu 04:48:00 AM -13.0261 -53.8233 147° Southeast  Level Estimated
Thu 04:49:00 AM -13.1399 -53.7480 147° Southeast  Level Estimated
Thu 04:50:00 AM -13.2537 -53.6727 147° Southeast  Level Estimated
Thu 04:51:00 AM -13.3674 -53.5973 147° Southeast  Level Estimated
Thu 04:52:00 AM -13.4811 -53.5218 147° Southeast  Level Estimated
Thu 04:53:00 AM -13.5948 -53.4463 147° Southeast  Level Estimated
Thu 04:54:00 AM -13.7085 -53.3706 147° Southeast  Level Estimated
Thu 04:55:00 AM -13.8221 -53.2949 147° Southeast  Level Estimated
Thu 04:56:00 AM -13.9358 -53.2192 147° Southeast  Level Estimated
Thu 04:57:00 AM -14.0493 -53.1433 147° Southeast  Level Estimated
Thu 04:58:00 AM -14.1629 -53.0674 147° Southeast  Level Estimated
Thu 04:59:00 AM -14.2765 -52.9914 147° Southeast  Level Estimated
Thu 05:00:00 AM -14.3900 -52.9153 147° Southeast  Level Estimated
Thu 05:01:00 AM -14.5035 -52.8392 147° Southeast  Level Estimated
Thu 05:02:00 AM -14.6170 -52.7630 147° Southeast  Level Estimated
Thu 05:03:00 AM -14.7304 -52.6866 147° Southeast  Level Estimated
Thu 05:04:00 AM -14.8439 -52.6102 147° Southeast  Level Estimated
Thu 05:05:00 AM -14.9573 -52.5338 147° Southeast  Level Estimated
Thu 05:06:00 AM -15.0707 -52.4572 147° Southeast  Level Estimated
Thu 05:07:00 AM -15.1840 -52.3806 147° Southeast  Level Estimated
Thu 05:08:00 AM -15.2973 -52.3039 147° Southeast  Level Estimated
Thu 05:09:00 AM -15.4106 -52.2271 147° Southeast  Level Estimated
Thu 05:10:00 AM -15.5239 -52.1502 147° Southeast  Level Estimated
Thu 05:11:00 AM -15.6371 -52.0732 147° Southeast  Level Estimated
Thu 05:12:00 AM -15.7504 -51.9962 147° Southeast  Level Estimated
Thu 05:13:00 AM -15.8636 -51.9191 147° Southeast  Level Estimated
Thu 05:14:00 AM -15.9767 -51.8419 147° Southeast  Level Estimated
Thu 05:15:00 AM -16.0899 -51.7645 147° Southeast  Level Estimated
Thu 05:16:00 AM -16.2030 -51.6871 147° Southeast  Level Estimated
Thu 05:17:00 AM -16.3161 -51.6096 147° Southeast  Level Estimated
Thu 05:18:00 AM -16.4291 -51.5321 147° Southeast  Level Estimated
Thu 05:19:00 AM -16.5421 -51.4544 147° Southeast  Level Estimated
Thu 05:20:00 AM -16.6551 -51.3767 147° Southeast  Level Estimated
Thu 05:21:00 AM -16.7681 -51.2988 147° Southeast  Level Estimated
Thu 05:22:00 AM -16.8811 -51.2209 147° Southeast  Level Estimated
Thu 05:23:00 AM -16.9940 -51.1428 147° Southeast  Level Estimated
Thu 05:24:00 AM -17.1068 -51.0647 147° Southeast  Level Estimated
Thu 05:25:00 AM -17.2197 -50.9865 146° Southeast  Level Estimated
Thu 05:26:00 AM -17.3325 -50.9082 146° Southeast  Level Estimated
Thu 05:27:00 AM -17.4453 -50.8298 146° Southeast  Level Estimated
Thu 05:28:00 AM -17.5581 -50.7512 146° Southeast  Level Estimated
Thu 05:28:18 AM -18.0560 -50.6610 146° Southeast 495 570 39,000  Level FlightAware ADS-B
Thu 05:28:58 AM -18.1310 -50.6010 143° Southeast 496 571 39,000  Level FlightAware ADS-B
Thu 05:29:00 AM -17.6708 -50.6726 146° Southeast  Level Estimated
Thu 05:29:38 AM -18.2040 -50.5420 142° Southeast 497 572 39,000  Level FlightAware ADS-B
Thu 05:30:23 AM -18.2850 -50.4760 142° Southeast 500 575 39,000  Level FlightAware ADS-B
Thu 05:31:18 AM -18.3730 -50.3850 136° Southeast 502 578 39,000  Level FlightAware ADS-B
Thu 05:31:58 AM -18.4280 -50.3270 135° Southeast 502 578 39,000  Level FlightAware ADS-B
Thu 05:32:38 AM -18.4840 -50.2680 135° Southeast 502 578 39,000  Level FlightAware ADS-B
Thu 05:33:23 AM -18.6060 -50.1950 150° Southeast 498 573 39,000  Level FlightAware ADS-B
Thu 05:34:08 AM -18.6860 -50.1310 143° Southeast 499 574 39,000  Level FlightAware ADS-B
Thu 05:34:48 AM -18.7620 -50.0700 143° Southeast 501 577 39,000  Level FlightAware ADS-B
Thu 05:35:28 AM -18.8360 -50.0100 143° Southeast 503 579 39,000  Level FlightAware ADS-B
Thu 05:36:08 AM -18.9000 -49.9570 142° Southeast 503 579 39,000  Level FlightAware ADS-B
Thu 05:36:48 AM -18.9620 -49.9060 142° Southeast 503 579 39,000  Level FlightAware ADS-B
Thu 05:37:33 AM -19.0680 -49.8220 143° Southeast 504 580 39,000  Level FlightAware ADS-B
Thu 05:38:18 AM -19.1510 -49.7540 142° Southeast 503 579 39,000  Level FlightAware ADS-B
Thu 05:39:13 AM -19.2510 -49.6700 142° Southeast 506 582 39,000  Level FlightAware ADS-B
Thu 05:39:53 AM -19.3250 -49.6070 141° Southeast 508 585 39,000  Level FlightAware ADS-B
Thu 05:40:38 AM -19.4080 -49.5390 142° Southeast 510 587 39,000  Level FlightAware ADS-B
Thu 05:41:18 AM -19.4820 -49.4750 141° Southeast 511 588 39,000  Level FlightAware ADS-B
Thu 05:42:03 AM -19.5670 -49.4040 142° Southeast 513 590 39,000  Level FlightAware ADS-B
Thu 05:42:43 AM -19.6420 -49.3410 142° Southeast 514 592 39,000  Level FlightAware ADS-B
Thu 05:43:23 AM -19.7130 -49.2810 142° Southeast 515 593 39,000  Level FlightAware ADS-B
Thu 05:44:08 AM -19.7980 -49.2090 141° Southeast 517 595 39,000  Level FlightAware ADS-B
Thu 05:44:48 AM -19.8740 -49.1450 142° Southeast 518 596 39,000  Level FlightAware ADS-B
Thu 05:45:33 AM -19.9560 -49.0750 141° Southeast 515 593 39,000  Level FlightAware ADS-B
Thu 05:46:13 AM -20.0310 -49.0120 142° Southeast 516 594 39,000  Level FlightAware ADS-B
Thu 05:46:58 AM -20.1090 -48.9280 135° Southeast 533 613 39,000  Level FlightAware ADS-B
Thu 05:47:38 AM -20.1480 -48.8340 114° Southeast 546 628 39,000  Level FlightAware ADS-B
Thu 05:48:18 AM -20.1810 -48.7280 108° East 548 631 39,000  Level FlightAware ADS-B
Thu 05:49:03 AM -20.2150 -48.6160 108° East 548 631 39,000  Level FlightAware ADS-B
Thu 05:49:43 AM -20.2460 -48.5140 108° East 549 632 39,000  Level FlightAware ADS-B
Thu 05:50:23 AM -20.2760 -48.4150 108° East 550 633 39,000  Level FlightAware ADS-B
Thu 05:51:03 AM -20.3080 -48.3050 107° East 552 635 39,000  Level FlightAware ADS-B
Thu 05:51:43 AM -20.3380 -48.2040 108° East 552 635 39,000  Level FlightAware ADS-B
Thu 05:52:23 AM -20.3670 -48.1010 107° East 550 633 39,000  Level FlightAware ADS-B
Thu 05:53:08 AM -20.4050 -47.9820 109° East 534 615 39,000  Level FlightAware ADS-B
Thu 05:53:43 AM -20.4540 -47.9120 127° Southeast 521 600 39,000  Level FlightAware ADS-B
Thu 05:54:03 AM -20.4890 -47.8810 140° Southeast 503 579 39,000  Level FlightAware ADS-B
Thu 05:54:43 AM -20.5720 -47.8410 156° South 480 552 39,000  Level FlightAware ADS-B
Thu 05:55:28 AM -20.6700 -47.8070 162° South 477 549 39,000  Level FlightAware ADS-B
Thu 05:56:08 AM -20.7550 -47.7780 162° South 478 550 39,000  Level FlightAware ADS-B
Thu 05:56:48 AM -20.8390 -47.7490 162° South 478 550 39,000  Level FlightAware ADS-B
Thu 05:57:33 AM -20.9320 -47.7160 162° South 479 551 39,000  Level FlightAware ADS-B
Thu 05:58:18 AM -21.0290 -47.6820 162° South 479 551 39,000  Level FlightAware ADS-B
Thu 05:58:58 AM -21.1130 -47.6520 162° South 480 552 39,000  Level FlightAware ADS-B
Thu 05:59:43 AM -21.2060 -47.6200 162° South 481 554 39,000  Level FlightAware ADS-B
Thu 06:00:23 AM -21.2920 -47.5890 161° South 483 556 39,000  Level FlightAware ADS-B
Thu 06:01:03 AM -21.3780 -47.5590 162° South 484 557 39,000  Level FlightAware ADS-B
Thu 06:01:43 AM -21.4620 -47.5300 162° South 485 558 39,000  Level FlightAware ADS-B
Thu 06:02:28 AM -21.5600 -47.4950 162° South 486 559 39,000 -71 Level FlightAware ADS-B
Thu 06:03:08 AM -21.6470 -47.4640 162° South 488 562 38,900 -1,059 Descending FlightAware ADS-B
Thu 06:03:53 AM -21.7400 -47.4310 162° South 487 560 37,500 -2,541 Descending FlightAware ADS-B
Thu 06:04:33 AM -21.8270 -47.4010 162° South 497 572 35,300 -3,247 Descending FlightAware ADS-B
Thu 06:05:18 AM -21.9290 -47.3640 161° South 501 577 32,900 -3,176 Descending FlightAware ADS-B
Thu 06:05:58 AM -22.0160 -47.3330 162° South 504 580 30,800 -2,925 Descending FlightAware ADS-B
Thu 06:06:38 AM -22.1000 -47.2980 159° South 505 581 29,000 -2,612 Descending FlightAware ADS-B
Thu 06:07:23 AM -22.1940 -47.2580 158° South 454 522 27,100 -2,240 Descending FlightAware ADS-B
Thu 06:07:53 AM -22.2510 -47.2340 159° South 424 488 26,200 -1,341 Descending FlightAware ADS-B
Thu 06:08:48 AM -22.3410 -47.1970 159° South 364 419 25,200 -1,129 Descending FlightAware ADS-B
Thu 06:09:18 AM -22.3760 -47.1830 160° South 356 410 24,600 -2,211 Descending FlightAware ADS-B
Thu 06:10:23 AM -22.4750 -47.1420 159° South 331 381 21,700 -2,229 Descending FlightAware ADS-B
Thu 06:11:03 AM -22.5330 -47.1160 158° South 327 376 20,700 -1,412 Descending FlightAware ADS-B
Thu 06:11:48 AM -22.5970 -47.0890 159° South 328 377 19,700 -1,412 Descending FlightAware ADS-B
Thu 06:12:28 AM -22.6540 -47.0650 159° South 324 373 18,700 -1,553 Descending FlightAware ADS-B
Thu 06:13:13 AM -22.7230 -47.0360 159° South 322 371 17,500 -1,482 Descending FlightAware ADS-B
Thu 06:13:53 AM -22.7790 -47.0130 159° South 319 367 16,600 -1,350 Descending FlightAware ADS-B
Thu 06:14:33 AM -22.8350 -46.9890 158° South 315 362 15,700 -1,553 Descending FlightAware ADS-B
Thu 06:15:18 AM -22.8970 -46.9630 159° South 318 366 14,400 -1,906 Descending FlightAware ADS-B
Thu 06:15:58 AM -22.9540 -46.9390 159° South 334 384 13,000 -2,250 Descending FlightAware ADS-B
Thu 06:16:38 AM -23.0130 -46.9150 159° South 346 398 11,400 -2,259 Descending FlightAware ADS-B
Thu 06:17:23 AM -23.0750 -46.8890 159° South 302 348 9,800 -1,920 Descending FlightAware ADS-B
Thu 06:17:53 AM -23.1110 -46.8730 158° South 272 313 9,000 -1,200 Descending FlightAware ADS-B
Thu 06:18:18 AM -23.1400 -46.8610 159° South 238 274 8,700 -750 Descending FlightAware ADS-B
Thu 06:18:33 AM -23.1540 -46.8550 158° South 229 264 8,500 -400 Descending FlightAware ADS-B
Thu 06:19:03 AM -23.1820 -46.8430 158° South 215 247 8,400 -300 Descending FlightAware ADS-B
Thu 06:19:33 AM -23.2100 -46.8320 160° South 210 242 8,200 -436 Descending FlightAware ADS-B
Thu 06:19:58 AM -23.2340 -46.8220 159° South 216 249 8,000 -480 Descending FlightAware ADS-B
Thu 06:20:23 AM -23.2560 -46.8120 157° South 214 246 7,800 -360 Descending FlightAware ADS-B
Thu 06:20:48 AM -23.2790 -46.8020 158° South 210 242 7,700 -400 Descending FlightAware ADS-B
Thu 06:21:08 AM -23.2970 -46.7940 158° South 210 242 7,500 -480 Descending FlightAware ADS-B
Thu 06:21:38 AM -23.3250 -46.7830 160° South 208 239 7,300 -436 Descending FlightAware ADS-B
Thu 06:22:03 AM -23.3470 -46.7740 159° South 209 241 7,100 -545 Descending FlightAware ADS-B
Thu 06:22:33 AM -23.3740 -46.7600 155° Southeast 214 246 6,800 -655 Descending FlightAware ADS-B
Thu 06:22:58 AM -23.3930 -46.7440 142° Southeast 213 245 6,500 -873 Descending FlightAware ADS-B
Thu 06:23:28 AM -23.4160 -46.7220 139° Southeast 206 237 6,000 -900 Descending FlightAware ADS-B
Thu 06:23:58 AM -23.4360 -46.7030 139° Southeast 195 224 5,600 -764 Descending FlightAware ADS-B
Thu 06:24:23 AM -23.4510 -46.6850 132° Southeast 184 212 5,300 -655 Descending FlightAware ADS-B
Thu 06:24:53 AM -23.4610 -46.6610 114° Southeast 164 189 5,000 -667 Descending FlightAware ADS-B
Thu 06:25:08 AM -23.4660 -46.6500 116° Southeast 159 183 4,800 -600 Descending FlightAware ADS-B
Thu 06:25:33 AM -23.4740 -46.6320 116° Southeast 159 183 4,600 -343 Descending FlightAware ADS-B
Thu 06:25:43 AM -23.4750 -46.6260 100° East 158 182 4,600 -200 Level FlightAware ADS-B
Thu 06:26:03 AM -23.4720 -46.6110 78° East 156 180 4,500 -533 Descending FlightAware ADS-B
Thu 06:26:28 AM -23.4670 -46.5910 75° East 156 180 4,200 -750 Descending FlightAware ADS-B
Thu 06:26:43 AM -23.4640 -46.5800 73° East 146 168 4,000 -800 Descending FlightAware ADS-B
Thu 06:27:13 AM -23.4580 -46.5590 73° East 143 165 3,600 -764 Descending FlightAware ADS-B
Thu 06:27:38 AM -23.4540 -46.5420 76° East 142 163 3,300 -655 Descending FlightAware ADS-B
Thu 06:28:08 AM -23.4480 -46.5210 73° East 144 166 3,000 -764 Descending FlightAware ADS-B
Thu 06:28:33 AM -23.4430 -46.5030 73° East 144 166 2,600 -764 Descending FlightAware ADS-B
Thu 06:29:03 AM -23.4370 -46.4820 73° East 146 168 2,300 -600 Descending FlightAware ADS-B

Login

Don't have an account? Register now (free) for customized features, flight alerts, and more!